sensor_id;sensor_type;location;lat;lon;timestamp;P1;durP1;ratioP1;P2;durP2;ratioP2
42244;SDS011;27912;51.828;5.688;2022-08-21T00:00:23;10.88;;;2.92;;
42244;SDS011;27912;51.828;5.688;2022-08-21T00:02:52;6.60;;;2.67;;
42244;SDS011;27912;51.828;5.688;2022-08-21T00:05:20;7.75;;;2.90;;
42244;SDS011;27912;51.828;5.688;2022-08-21T00:07:46;6.18;;;3.33;;
42244;SDS011;27912;51.828;5.688;2022-08-21T00:10:12;8.68;;;3.38;;
42244;SDS011;27912;51.828;5.688;2022-08-21T00:12:38;8.00;;;3.30;;
42244;SDS011;27912;51.828;5.688;2022-08-21T00:15:05;9.77;;;3.83;;
42244;SDS011;27912;51.828;5.688;2022-08-21T00:17:32;6.75;;;3.78;;
42244;SDS011;27912;51.828;5.688;2022-08-21T00:19:58;8.50;;;3.40;;
42244;SDS011;27912;51.828;5.688;2022-08-21T00:22:24;8.85;;;3.55;;
42244;SDS011;27912;51.828;5.688;2022-08-21T00:24:49;8.52;;;3.88;;
42244;SDS011;27912;51.828;5.688;2022-08-21T00:27:15;12.75;;;3.95;;
42244;SDS011;27912;51.828;5.688;2022-08-21T00:29:40;10.07;;;4.18;;
42244;SDS011;27912;51.828;5.688;2022-08-21T00:32:06;8.15;;;3.90;;
42244;SDS011;27912;51.828;5.688;2022-08-21T00:34:32;6.57;;;4.20;;
42244;SDS011;27912;51.828;5.688;2022-08-21T00:36:57;8.98;;;4.45;;
42244;SDS011;27912;51.828;5.688;2022-08-21T00:39:23;7.82;;;4.05;;
42244;SDS011;27912;51.828;5.688;2022-08-21T00:41:49;6.00;;;4.25;;
42244;SDS011;27912;51.828;5.688;2022-08-21T00:44:14;11.70;;;4.75;;
42244;SDS011;27912;51.828;5.688;2022-08-21T00:46:41;10.48;;;4.43;;
42244;SDS011;27912;51.828;5.688;2022-08-21T00:49:07;7.72;;;5.00;;
42244;SDS011;27912;51.828;5.688;2022-08-21T00:51:41;15.32;;;5.70;;
42244;SDS011;27912;51.828;5.688;2022-08-21T00:54:12;10.88;;;4.93;;
42244;SDS011;27912;51.828;5.688;2022-08-21T00:56:38;11.55;;;5.07;;
42244;SDS011;27912;51.828;5.688;2022-08-21T00:59:04;8.63;;;4.75;;
42244;SDS011;27912;51.828;5.688;2022-08-21T01:01:31;9.30;;;4.90;;
42244;SDS011;27912;51.828;5.688;2022-08-21T01:03:56;11.43;;;5.65;;
42244;SDS011;27912;51.828;5.688;2022-08-21T01:06:22;12.35;;;5.90;;
42244;SDS011;27912;51.828;5.688;2022-08-21T01:08:47;8.23;;;4.80;;
42244;SDS011;27912;51.828;5.688;2022-08-21T01:11:14;10.60;;;5.03;;
42244;SDS011;27912;51.828;5.688;2022-08-21T01:13:40;7.57;;;4.55;;
42244;SDS011;27912;51.828;5.688;2022-08-21T01:16:11;6.63;;;3.47;;
42244;SDS011;27912;51.828;5.688;2022-08-21T01:18:40;6.65;;;4.40;;
42244;SDS011;27912;51.828;5.688;2022-08-21T01:21:10;7.45;;;3.78;;
42244;SDS011;27912;51.828;5.688;2022-08-21T01:23:39;5.95;;;4.18;;
42244;SDS011;27912;51.828;5.688;2022-08-21T01:26:08;11.05;;;4.10;;
42244;SDS011;27912;51.828;5.688;2022-08-21T01:28:38;8.07;;;5.47;;
42244;SDS011;27912;51.828;5.688;2022-08-21T01:31:09;8.05;;;4.60;;
42244;SDS011;27912;51.828;5.688;2022-08-21T01:33:36;8.50;;;4.75;;
42244;SDS011;27912;51.828;5.688;2022-08-21T01:36:02;11.57;;;6.00;;
42244;SDS011;27912;51.828;5.688;2022-08-21T01:38:28;8.40;;;5.72;;
42244;SDS011;27912;51.828;5.688;2022-08-21T01:40:54;14.07;;;6.15;;
42244;SDS011;27912;51.828;5.688;2022-08-21T01:43:19;7.53;;;5.35;;
42244;SDS011;27912;51.828;5.688;2022-08-21T01:45:45;9.75;;;5.43;;
42244;SDS011;27912;51.828;5.688;2022-08-21T01:48:10;10.85;;;5.32;;
42244;SDS011;27912;51.828;5.688;2022-08-21T01:50:36;7.97;;;3.88;;
42244;SDS011;27912;51.828;5.688;2022-08-21T01:53:02;8.90;;;5.30;;
42244;SDS011;27912;51.828;5.688;2022-08-21T01:55:28;9.00;;;4.75;;
42244;SDS011;27912;51.828;5.688;2022-08-21T01:57:53;23.02;;;7.80;;
42244;SDS011;27912;51.828;5.688;2022-08-21T02:00:21;9.30;;;6.72;;
42244;SDS011;27912;51.828;5.688;2022-08-21T02:02:49;9.55;;;6.28;;
42244;SDS011;27912;51.828;5.688;2022-08-21T02:05:15;10.80;;;6.68;;
42244;SDS011;27912;51.828;5.688;2022-08-21T02:07:45;12.55;;;8.20;;
42244;SDS011;27912;51.828;5.688;2022-08-21T02:10:14;14.48;;;8.18;;
42244;SDS011;27912;51.828;5.688;2022-08-21T02:12:42;13.23;;;7.97;;
42244;SDS011;27912;51.828;5.688;2022-08-21T02:15:07;11.18;;;8.05;;
42244;SDS011;27912;51.828;5.688;2022-08-21T02:17:41;16.45;;;8.07;;
42244;SDS011;27912;51.828;5.688;2022-08-21T02:20:11;14.80;;;8.10;;
42244;SDS011;27912;51.828;5.688;2022-08-21T02:22:41;12.80;;;8.35;;
42244;SDS011;27912;51.828;5.688;2022-08-21T02:25:06;9.82;;;7.95;;
42244;SDS011;27912;51.828;5.688;2022-08-21T02:27:42;14.38;;;8.05;;
42244;SDS011;27912;51.828;5.688;2022-08-21T02:30:20;10.93;;;8.65;;
42244;SDS011;27912;51.828;5.688;2022-08-21T02:32:48;10.43;;;7.35;;
42244;SDS011;27912;51.828;5.688;2022-08-21T02:35:14;10.88;;;6.85;;
42244;SDS011;27912;51.828;5.688;2022-08-21T02:37:43;14.90;;;7.70;;
42244;SDS011;27912;51.828;5.688;2022-08-21T02:40:22;12.30;;;8.07;;
42244;SDS011;27912;51.828;5.688;2022-08-21T02:42:49;12.63;;;8.35;;
42244;SDS011;27912;51.828;5.688;2022-08-21T02:45:16;14.43;;;8.18;;
42244;SDS011;27912;51.828;5.688;2022-08-21T02:47:52;12.40;;;7.82;;
42244;SDS011;27912;51.828;5.688;2022-08-21T02:50:23;14.70;;;8.13;;
42244;SDS011;27912;51.828;5.688;2022-08-21T02:52:53;12.15;;;8.45;;
42244;SDS011;27912;51.828;5.688;2022-08-21T02:55:20;12.50;;;8.15;;
42244;SDS011;27912;51.828;5.688;2022-08-21T02:57:47;12.15;;;8.23;;
42244;SDS011;27912;51.828;5.688;2022-08-21T03:00:14;11.80;;;8.43;;
42244;SDS011;27912;51.828;5.688;2022-08-21T03:02:40;10.55;;;7.20;;
42244;SDS011;27912;51.828;5.688;2022-08-21T03:05:07;13.18;;;8.85;;
42244;SDS011;27912;51.828;5.688;2022-08-21T03:07:35;13.13;;;8.63;;
42244;SDS011;27912;51.828;5.688;2022-08-21T03:10:01;10.30;;;7.70;;
42244;SDS011;27912;51.828;5.688;2022-08-21T03:12:28;13.43;;;8.68;;
42244;SDS011;27912;51.828;5.688;2022-08-21T03:14:53;13.57;;;8.93;;
42244;SDS011;27912;51.828;5.688;2022-08-21T03:17:19;11.55;;;8.00;;
42244;SDS011;27912;51.828;5.688;2022-08-21T03:19:44;16.67;;;7.65;;
42244;SDS011;27912;51.828;5.688;2022-08-21T03:22:10;11.10;;;8.02;;
42244;SDS011;27912;51.828;5.688;2022-08-21T03:24:35;10.18;;;6.53;;
42244;SDS011;27912;51.828;5.688;2022-08-21T03:27:01;9.13;;;6.43;;
42244;SDS011;27912;51.828;5.688;2022-08-21T03:29:27;11.10;;;7.28;;
42244;SDS011;27912;51.828;5.688;2022-08-21T03:31:52;12.43;;;6.72;;
42244;SDS011;27912;51.828;5.688;2022-08-21T03:34:19;10.25;;;7.55;;
42244;SDS011;27912;51.828;5.688;2022-08-21T03:36:45;11.73;;;8.45;;
42244;SDS011;27912;51.828;5.688;2022-08-21T03:39:10;13.40;;;8.73;;
42244;SDS011;27912;51.828;5.688;2022-08-21T03:41:36;13.40;;;8.95;;
42244;SDS011;27912;51.828;5.688;2022-08-21T03:44:02;14.40;;;9.50;;
42244;SDS011;27912;51.828;5.688;2022-08-21T03:46:27;13.63;;;8.48;;
42244;SDS011;27912;51.828;5.688;2022-08-21T03:48:53;13.63;;;9.40;;
42244;SDS011;27912;51.828;5.688;2022-08-21T03:51:18;21.95;;;10.15;;
42244;SDS011;27912;51.828;5.688;2022-08-21T03:53:44;19.95;;;9.98;;
42244;SDS011;27912;51.828;5.688;2022-08-21T03:56:10;13.48;;;10.25;;
42244;SDS011;27912;51.828;5.688;2022-08-21T03:58:36;15.77;;;9.68;;
42244;SDS011;27912;51.828;5.688;2022-08-21T04:01:03;14.25;;;9.60;;
42244;SDS011;27912;51.828;5.688;2022-08-21T04:03:31;12.70;;;10.27;;
42244;SDS011;27912;51.828;5.688;2022-08-21T04:05:58;11.80;;;8.77;;
42244;SDS011;27912;51.828;5.688;2022-08-21T04:08:24;16.50;;;8.63;;
42244;SDS011;27912;51.828;5.688;2022-08-21T04:10:51;11.73;;;8.25;;
42244;SDS011;27912;51.828;5.688;2022-08-21T04:13:19;14.50;;;7.43;;
42244;SDS011;27912;51.828;5.688;2022-08-21T04:15:45;16.02;;;7.75;;
42244;SDS011;27912;51.828;5.688;2022-08-21T04:18:10;8.48;;;6.47;;
42244;SDS011;27912;51.828;5.688;2022-08-21T04:20:36;8.43;;;7.00;;
42244;SDS011;27912;51.828;5.688;2022-08-21T04:23:02;10.98;;;5.95;;
42244;SDS011;27912;51.828;5.688;2022-08-21T04:25:28;12.35;;;5.85;;
42244;SDS011;27912;51.828;5.688;2022-08-21T04:27:54;9.68;;;5.97;;
42244;SDS011;27912;51.828;5.688;2022-08-21T04:30:20;6.82;;;6.05;;
42244;SDS011;27912;51.828;5.688;2022-08-21T04:32:46;11.23;;;6.50;;
42244;SDS011;27912;51.828;5.688;2022-08-21T04:35:14;7.45;;;4.93;;
42244;SDS011;27912;51.828;5.688;2022-08-21T04:37:41;11.75;;;6.90;;
42244;SDS011;27912;51.828;5.688;2022-08-21T04:40:07;9.85;;;6.78;;
42244;SDS011;27912;51.828;5.688;2022-08-21T04:42:40;10.02;;;7.07;;
42244;SDS011;27912;51.828;5.688;2022-08-21T04:45:09;17.70;;;7.28;;
42244;SDS011;27912;51.828;5.688;2022-08-21T04:47:40;11.93;;;7.95;;
42244;SDS011;27912;51.828;5.688;2022-08-21T04:50:05;12.68;;;7.50;;
42244;SDS011;27912;51.828;5.688;2022-08-21T04:52:32;12.48;;;6.85;;
42244;SDS011;27912;51.828;5.688;2022-08-21T04:54:57;13.45;;;7.78;;
42244;SDS011;27912;51.828;5.688;2022-08-21T04:57:23;10.15;;;7.32;;
42244;SDS011;27912;51.828;5.688;2022-08-21T04:59:49;6.25;;;5.30;;
42244;SDS011;27912;51.828;5.688;2022-08-21T05:02:16;8.68;;;5.55;;
42244;SDS011;27912;51.828;5.688;2022-08-21T05:04:48;10.88;;;7.28;;
42244;SDS011;27912;51.828;5.688;2022-08-21T05:07:19;12.77;;;8.82;;
42244;SDS011;27912;51.828;5.688;2022-08-21T05:09:50;11.05;;;9.10;;
42244;SDS011;27912;51.828;5.688;2022-08-21T05:12:16;18.73;;;10.75;;
42244;SDS011;27912;51.828;5.688;2022-08-21T05:14:42;18.50;;;10.65;;
42244;SDS011;27912;51.828;5.688;2022-08-21T05:17:08;17.58;;;11.40;;
42244;SDS011;27912;51.828;5.688;2022-08-21T05:19:34;18.58;;;12.10;;
42244;SDS011;27912;51.828;5.688;2022-08-21T05:22:00;17.33;;;12.00;;
42244;SDS011;27912;51.828;5.688;2022-08-21T05:24:26;20.02;;;12.23;;
42244;SDS011;27912;51.828;5.688;2022-08-21T05:26:53;22.35;;;13.30;;
42244;SDS011;27912;51.828;5.688;2022-08-21T05:29:18;20.48;;;13.48;;
42244;SDS011;27912;51.828;5.688;2022-08-21T05:31:45;21.58;;;13.43;;
42244;SDS011;27912;51.828;5.688;2022-08-21T05:34:12;17.75;;;12.93;;
42244;SDS011;27912;51.828;5.688;2022-08-21T05:36:38;19.98;;;13.57;;
42244;SDS011;27912;51.828;5.688;2022-08-21T05:39:04;19.08;;;13.25;;
42244;SDS011;27912;51.828;5.688;2022-08-21T05:41:30;15.98;;;12.23;;
42244;SDS011;27912;51.828;5.688;2022-08-21T05:43:55;21.38;;;14.25;;
42244;SDS011;27912;51.828;5.688;2022-08-21T05:46:21;16.80;;;13.02;;
42244;SDS011;27912;51.828;5.688;2022-08-21T05:48:46;18.55;;;12.95;;
42244;SDS011;27912;51.828;5.688;2022-08-21T05:51:12;15.48;;;12.88;;
42244;SDS011;27912;51.828;5.688;2022-08-21T05:53:39;17.58;;;13.13;;
42244;SDS011;27912;51.828;5.688;2022-08-21T05:56:07;19.65;;;12.65;;
42244;SDS011;27912;51.828;5.688;2022-08-21T05:58:33;18.00;;;12.65;;
42244;SDS011;27912;51.828;5.688;2022-08-21T06:01:00;21.02;;;12.70;;
42244;SDS011;27912;51.828;5.688;2022-08-21T06:03:32;18.52;;;12.45;;
42244;SDS011;27912;51.828;5.688;2022-08-21T06:06:00;18.38;;;11.93;;
42244;SDS011;27912;51.828;5.688;2022-08-21T06:08:26;19.23;;;12.48;;
42244;SDS011;27912;51.828;5.688;2022-08-21T06:10:53;15.35;;;11.50;;
42244;SDS011;27912;51.828;5.688;2022-08-21T06:13:21;14.23;;;10.55;;
42244;SDS011;27912;51.828;5.688;2022-08-21T06:15:47;16.38;;;11.70;;
42244;SDS011;27912;51.828;5.688;2022-08-21T06:18:13;16.63;;;10.80;;
42244;SDS011;27912;51.828;5.688;2022-08-21T06:20:39;19.75;;;10.75;;
42244;SDS011;27912;51.828;5.688;2022-08-21T06:23:05;18.60;;;12.05;;
42244;SDS011;27912;51.828;5.688;2022-08-21T06:25:31;18.75;;;11.65;;
42244;SDS011;27912;51.828;5.688;2022-08-21T06:28:04;26.45;;;11.15;;
42244;SDS011;27912;51.828;5.688;2022-08-21T06:30:33;17.67;;;10.38;;
42244;SDS011;27912;51.828;5.688;2022-08-21T06:33:01;18.48;;;10.98;;
42244;SDS011;27912;51.828;5.688;2022-08-21T06:35:28;14.77;;;10.10;;
42244;SDS011;27912;51.828;5.688;2022-08-21T06:37:54;15.85;;;9.38;;
42244;SDS011;27912;51.828;5.688;2022-08-21T06:40:20;12.32;;;9.15;;
42244;SDS011;27912;51.828;5.688;2022-08-21T06:42:46;17.90;;;9.50;;
42244;SDS011;27912;51.828;5.688;2022-08-21T06:45:12;18.63;;;9.85;;
42244;SDS011;27912;51.828;5.688;2022-08-21T06:47:37;13.50;;;8.50;;
42244;SDS011;27912;51.828;5.688;2022-08-21T06:50:03;15.63;;;8.77;;
42244;SDS011;27912;51.828;5.688;2022-08-21T06:52:32;14.55;;;7.95;;
42244;SDS011;27912;51.828;5.688;2022-08-21T06:54:58;12.60;;;7.60;;
42244;SDS011;27912;51.828;5.688;2022-08-21T06:57:23;14.20;;;8.15;;
42244;SDS011;27912;51.828;5.688;2022-08-21T06:59:50;14.88;;;8.07;;
42244;SDS011;27912;51.828;5.688;2022-08-21T07:02:16;17.52;;;7.88;;
42244;SDS011;27912;51.828;5.688;2022-08-21T07:04:42;14.55;;;7.35;;
42244;SDS011;27912;51.828;5.688;2022-08-21T07:07:07;18.95;;;7.70;;
42244;SDS011;27912;51.828;5.688;2022-08-21T07:09:33;14.32;;;7.68;;
42244;SDS011;27912;51.828;5.688;2022-08-21T07:11:58;15.05;;;7.45;;
42244;SDS011;27912;51.828;5.688;2022-08-21T07:14:24;14.70;;;7.72;;
42244;SDS011;27912;51.828;5.688;2022-08-21T07:16:50;15.73;;;7.03;;
42244;SDS011;27912;51.828;5.688;2022-08-21T07:19:16;11.02;;;6.20;;
42244;SDS011;27912;51.828;5.688;2022-08-21T07:21:42;15.77;;;7.03;;
42244;SDS011;27912;51.828;5.688;2022-08-21T07:24:08;13.40;;;6.70;;
42244;SDS011;27912;51.828;5.688;2022-08-21T07:26:34;10.00;;;6.25;;
42244;SDS011;27912;51.828;5.688;2022-08-21T07:29:00;12.63;;;5.88;;
42244;SDS011;27912;51.828;5.688;2022-08-21T07:31:26;12.75;;;6.40;;
42244;SDS011;27912;51.828;5.688;2022-08-21T07:33:53;15.43;;;6.40;;
42244;SDS011;27912;51.828;5.688;2022-08-21T07:36:19;13.60;;;6.15;;
42244;SDS011;27912;51.828;5.688;2022-08-21T07:38:44;14.25;;;5.97;;
42244;SDS011;27912;51.828;5.688;2022-08-21T07:41:14;14.80;;;5.95;;
42244;SDS011;27912;51.828;5.688;2022-08-21T07:43:42;11.57;;;6.00;;
42244;SDS011;27912;51.828;5.688;2022-08-21T07:46:08;9.95;;;6.22;;
42244;SDS011;27912;51.828;5.688;2022-08-21T07:48:34;16.13;;;6.18;;
42244;SDS011;27912;51.828;5.688;2022-08-21T07:51:00;17.15;;;5.22;;
42244;SDS011;27912;51.828;5.688;2022-08-21T07:53:34;14.88;;;5.65;;
42244;SDS011;27912;51.828;5.688;2022-08-21T07:56:01;9.93;;;5.40;;
42244;SDS011;27912;51.828;5.688;2022-08-21T07:58:28;16.48;;;5.93;;
42244;SDS011;27912;51.828;5.688;2022-08-21T08:00:53;11.77;;;5.03;;
42244;SDS011;27912;51.828;5.688;2022-08-21T08:03:19;12.70;;;4.32;;
42244;SDS011;27912;51.828;5.688;2022-08-21T08:05:45;14.18;;;5.35;;
42244;SDS011;27912;51.828;5.688;2022-08-21T08:08:10;16.88;;;4.68;;
42244;SDS011;27912;51.828;5.688;2022-08-21T08:10:36;12.20;;;3.85;;
42244;SDS011;27912;51.828;5.688;2022-08-21T08:13:02;12.13;;;4.38;;
42244;SDS011;27912;51.828;5.688;2022-08-21T08:15:28;11.43;;;4.28;;
42244;SDS011;27912;51.828;5.688;2022-08-21T08:17:54;14.93;;;4.40;;
42244;SDS011;27912;51.828;5.688;2022-08-21T08:20:21;10.30;;;3.75;;
42244;SDS011;27912;51.828;5.688;2022-08-21T08:22:48;7.88;;;3.85;;
42244;SDS011;27912;51.828;5.688;2022-08-21T08:25:14;13.30;;;3.97;;
42244;SDS011;27912;51.828;5.688;2022-08-21T08:27:42;12.38;;;3.72;;
42244;SDS011;27912;51.828;5.688;2022-08-21T08:30:08;12.40;;;3.47;;
42244;SDS011;27912;51.828;5.688;2022-08-21T08:32:35;11.30;;;4.15;;
42244;SDS011;27912;51.828;5.688;2022-08-21T08:35:01;10.68;;;3.00;;
42244;SDS011;27912;51.828;5.688;2022-08-21T08:37:27;10.80;;;3.35;;
42244;SDS011;27912;51.828;5.688;2022-08-21T08:39:53;9.30;;;2.53;;
42244;SDS011;27912;51.828;5.688;2022-08-21T08:42:24;8.88;;;2.85;;
42244;SDS011;27912;51.828;5.688;2022-08-21T08:44:57;12.52;;;3.45;;
42244;SDS011;27912;51.828;5.688;2022-08-21T08:47:46;13.15;;;2.85;;
42244;SDS011;27912;51.828;5.688;2022-08-21T08:50:17;8.82;;;2.70;;
42244;SDS011;27912;51.828;5.688;2022-08-21T08:53:33;10.02;;;2.50;;
42244;SDS011;27912;51.828;5.688;2022-08-21T08:55:42;9.43;;;2.30;;
42244;SDS011;27912;51.828;5.688;2022-08-21T08:58:16;11.25;;;1.92;;
42244;SDS011;27912;51.828;5.688;2022-08-21T09:00:47;12.25;;;2.78;;
42244;SDS011;27912;51.828;5.688;2022-08-21T09:03:15;7.00;;;1.42;;
42244;SDS011;27912;51.828;5.688;2022-08-21T09:05:46;10.93;;;1.67;;
42244;SDS011;27912;51.828;5.688;2022-08-21T09:08:26;8.07;;;1.38;;
42244;SDS011;27912;51.828;5.688;2022-08-21T09:14:10;6.85;;;1.13;;
42244;SDS011;27912;51.828;5.688;2022-08-21T09:17:04;8.70;;;1.52;;
42244;SDS011;27912;51.828;5.688;2022-08-21T09:22:30;7.78;;;0.90;;
42244;SDS011;27912;51.828;5.688;2022-08-21T09:25:07;9.18;;;1.70;;
42244;SDS011;27912;51.828;5.688;2022-08-21T09:27:43;4.88;;;0.80;;
42244;SDS011;27912;51.828;5.688;2022-08-21T09:30:09;8.93;;;1.33;;
42244;SDS011;27912;51.828;5.688;2022-08-21T09:32:36;8.05;;;1.05;;
42244;SDS011;27912;51.828;5.688;2022-08-21T09:40:30;7.05;;;1.20;;
42244;SDS011;27912;51.828;5.688;2022-08-21T09:43:05;9.32;;;1.27;;
42244;SDS011;27912;51.828;5.688;2022-08-21T09:45:37;8.30;;;0.90;;
42244;SDS011;27912;51.828;5.688;2022-08-21T09:50:37;7.95;;;1.30;;
42244;SDS011;27912;51.828;5.688;2022-08-21T09:53:04;7.40;;;1.15;;
42244;SDS011;27912;51.828;5.688;2022-08-21T09:55:46;6.07;;;0.90;;
42244;SDS011;27912;51.828;5.688;2022-08-21T09:58:46;5.95;;;0.65;;
42244;SDS011;27912;51.828;5.688;2022-08-21T10:01:15;5.80;;;0.80;;
42244;SDS011;27912;51.828;5.688;2022-08-21T10:03:48;5.75;;;0.90;;
42244;SDS011;27912;51.828;5.688;2022-08-21T10:06:27;4.60;;;0.75;;
42244;SDS011;27912;51.828;5.688;2022-08-21T10:09:07;9.63;;;2.08;;
42244;SDS011;27912;51.828;5.688;2022-08-21T10:11:45;6.25;;;0.90;;
42244;SDS011;27912;51.828;5.688;2022-08-21T10:16:58;8.45;;;0.80;;
42244;SDS011;27912;51.828;5.688;2022-08-21T10:19:40;6.40;;;0.80;;
42244;SDS011;27912;51.828;5.688;2022-08-21T10:24:54;6.78;;;1.33;;
42244;SDS011;27912;51.828;5.688;2022-08-21T10:27:37;10.30;;;0.90;;
42244;SDS011;27912;51.828;5.688;2022-08-21T10:32:52;4.38;;;0.90;;
42244;SDS011;27912;51.828;5.688;2022-08-21T10:35:27;4.82;;;0.50;;
42244;SDS011;27912;51.828;5.688;2022-08-21T10:38:06;6.03;;;0.80;;
42244;SDS011;27912;51.828;5.688;2022-08-21T10:40:55;6.03;;;0.80;;
42244;SDS011;27912;51.828;5.688;2022-08-21T10:43:35;5.03;;;0.60;;
42244;SDS011;27912;51.828;5.688;2022-08-21T10:46:50;4.15;;;0.70;;
42244;SDS011;27912;51.828;5.688;2022-08-21T10:52:05;6.32;;;0.60;;
42244;SDS011;27912;51.828;5.688;2022-08-21T10:57:58;6.30;;;0.68;;
42244;SDS011;27912;51.828;5.688;2022-08-21T11:05:46;8.82;;;0.73;;
42244;SDS011;27912;51.828;5.688;2022-08-21T11:08:26;6.03;;;0.82;;
42244;SDS011;27912;51.828;5.688;2022-08-21T11:11:01;2.92;;;0.60;;
42244;SDS011;27912;51.828;5.688;2022-08-21T11:13:50;7.03;;;0.80;;
42244;SDS011;27912;51.828;5.688;2022-08-21T11:16:31;3.95;;;0.73;;
42244;SDS011;27912;51.828;5.688;2022-08-21T11:19:07;4.53;;;0.77;;
42244;SDS011;27912;51.828;5.688;2022-08-21T11:21:45;5.05;;;0.60;;
42244;SDS011;27912;51.828;5.688;2022-08-21T11:26:42;4.32;;;0.50;;
42244;SDS011;27912;51.828;5.688;2022-08-21T11:29:25;4.50;;;0.50;;
42244;SDS011;27912;51.828;5.688;2022-08-21T11:43:17;6.70;;;0.57;;
42244;SDS011;27912;51.828;5.688;2022-08-21T11:46:11;4.75;;;0.40;;
42244;SDS011;27912;51.828;5.688;2022-08-21T11:51:13;7.05;;;0.60;;
42244;SDS011;27912;51.828;5.688;2022-08-21T11:54:03;4.00;;;0.40;;
42244;SDS011;27912;51.828;5.688;2022-08-21T11:59:29;4.55;;;0.40;;
42244;SDS011;27912;51.828;5.688;2022-08-21T12:02:02;4.40;;;0.50;;
42244;SDS011;27912;51.828;5.688;2022-08-21T12:05:22;3.72;;;0.40;;
42244;SDS011;27912;51.828;5.688;2022-08-21T12:07:38;4.63;;;0.90;;
42244;SDS011;27912;51.828;5.688;2022-08-21T12:10:16;5.28;;;0.50;;
42244;SDS011;27912;51.828;5.688;2022-08-21T12:12:47;6.30;;;0.97;;
42244;SDS011;27912;51.828;5.688;2022-08-21T12:15:15;2.72;;;0.60;;
42244;SDS011;27912;51.828;5.688;2022-08-21T12:17:51;4.22;;;0.40;;
42244;SDS011;27912;51.828;5.688;2022-08-21T12:22:53;3.42;;;0.38;;
42244;SDS011;27912;51.828;5.688;2022-08-21T12:25:35;2.85;;;0.30;;
42244;SDS011;27912;51.828;5.688;2022-08-21T12:28:07;2.42;;;0.40;;
42244;SDS011;27912;51.828;5.688;2022-08-21T12:30:36;2.92;;;0.47;;
42244;SDS011;27912;51.828;5.688;2022-08-21T12:33:04;2.70;;;0.50;;
42244;SDS011;27912;51.828;5.688;2022-08-21T12:35:43;3.03;;;0.55;;
42244;SDS011;27912;51.828;5.688;2022-08-21T12:41:05;3.05;;;0.45;;
42244;SDS011;27912;51.828;5.688;2022-08-21T12:43:37;2.78;;;0.30;;
42244;SDS011;27912;51.828;5.688;2022-08-21T12:46:06;18.92;;;0.98;;
42244;SDS011;27912;51.828;5.688;2022-08-21T12:51:19;3.00;;;0.30;;
42244;SDS011;27912;51.828;5.688;2022-08-21T12:53:54;3.78;;;0.40;;
42244;SDS011;27912;51.828;5.688;2022-08-21T12:56:23;3.45;;;0.30;;
42244;SDS011;27912;51.828;5.688;2022-08-21T12:59:01;5.47;;;0.65;;
42244;SDS011;27912;51.828;5.688;2022-08-21T13:01:31;1.90;;;0.28;;
42244;SDS011;27912;51.828;5.688;2022-08-21T13:04:04;2.08;;;0.40;;
42244;SDS011;27912;51.828;5.688;2022-08-21T13:06:38;3.47;;;0.43;;
42244;SDS011;27912;51.828;5.688;2022-08-21T13:09:16;4.47;;;0.45;;
42244;SDS011;27912;51.828;5.688;2022-08-21T13:11:45;2.45;;;0.38;;
42244;SDS011;27912;51.828;5.688;2022-08-21T13:14:14;2.53;;;0.32;;
42244;SDS011;27912;51.828;5.688;2022-08-21T13:16:48;3.90;;;0.40;;
42244;SDS011;27912;51.828;5.688;2022-08-21T13:19:19;4.47;;;0.40;;
42244;SDS011;27912;51.828;5.688;2022-08-21T13:21:45;6.68;;;0.40;;
42244;SDS011;27912;51.828;5.688;2022-08-21T13:24:16;3.58;;;0.60;;
42244;SDS011;27912;51.828;5.688;2022-08-21T13:26:42;3.42;;;0.40;;
42244;SDS011;27912;51.828;5.688;2022-08-21T13:29:12;3.83;;;0.60;;
42244;SDS011;27912;51.828;5.688;2022-08-21T13:31:42;4.82;;;0.50;;
42244;SDS011;27912;51.828;5.688;2022-08-21T13:34:17;4.25;;;0.70;;
42244;SDS011;27912;51.828;5.688;2022-08-21T13:36:48;3.30;;;0.35;;
42244;SDS011;27912;51.828;5.688;2022-08-21T13:39:19;3.20;;;0.50;;
42244;SDS011;27912;51.828;5.688;2022-08-21T13:41:47;2.08;;;0.40;;
42244;SDS011;27912;51.828;5.688;2022-08-21T13:44:18;3.70;;;0.40;;
42244;SDS011;27912;51.828;5.688;2022-08-21T13:46:47;3.03;;;0.30;;
42244;SDS011;27912;51.828;5.688;2022-08-21T13:49:14;3.28;;;0.35;;
42244;SDS011;27912;51.828;5.688;2022-08-21T13:51:42;4.15;;;0.50;;
42244;SDS011;27912;51.828;5.688;2022-08-21T13:57:02;2.17;;;0.50;;
42244;SDS011;27912;51.828;5.688;2022-08-21T13:59:33;2.78;;;0.30;;
42244;SDS011;27912;51.828;5.688;2022-08-21T14:04:36;1.52;;;0.30;;
42244;SDS011;27912;51.828;5.688;2022-08-21T14:07:13;2.28;;;0.30;;
42244;SDS011;27912;51.828;5.688;2022-08-21T14:10:04;1.38;;;0.28;;
42244;SDS011;27912;51.828;5.688;2022-08-21T14:12:32;4.63;;;0.40;;
42244;SDS011;27912;51.828;5.688;2022-08-21T14:15:05;2.55;;;0.40;;
42244;SDS011;27912;51.828;5.688;2022-08-21T14:17:33;4.03;;;0.40;;
42244;SDS011;27912;51.828;5.688;2022-08-21T14:20:02;3.33;;;0.40;;
42244;SDS011;27912;51.828;5.688;2022-08-21T14:22:40;2.45;;;0.40;;
42244;SDS011;27912;51.828;5.688;2022-08-21T14:25:28;3.45;;;0.50;;
42244;SDS011;27912;51.828;5.688;2022-08-21T14:30:40;3.58;;;0.40;;
42244;SDS011;27912;51.828;5.688;2022-08-21T14:33:09;2.83;;;0.40;;
42244;SDS011;27912;51.828;5.688;2022-08-21T14:35:36;5.18;;;0.40;;
42244;SDS011;27912;51.828;5.688;2022-08-21T14:38:02;4.10;;;0.50;;
42244;SDS011;27912;51.828;5.688;2022-08-21T14:40:38;1.13;;;0.30;;
42244;SDS011;27912;51.828;5.688;2022-08-21T14:43:04;5.13;;;0.45;;
42244;SDS011;27912;51.828;5.688;2022-08-21T14:45:30;3.38;;;0.40;;
42244;SDS011;27912;51.828;5.688;2022-08-21T14:47:56;2.13;;;0.30;;
42244;SDS011;27912;51.828;5.688;2022-08-21T14:50:22;1.50;;;0.30;;
42244;SDS011;27912;51.828;5.688;2022-08-21T14:52:48;3.90;;;0.43;;
42244;SDS011;27912;51.828;5.688;2022-08-21T14:55:17;4.65;;;0.50;;
42244;SDS011;27912;51.828;5.688;2022-08-21T14:57:52;2.85;;;0.40;;
42244;SDS011;27912;51.828;5.688;2022-08-21T15:00:21;4.05;;;0.40;;
42244;SDS011;27912;51.828;5.688;2022-08-21T15:02:49;4.70;;;0.40;;
42244;SDS011;27912;51.828;5.688;2022-08-21T15:05:14;7.68;;;0.47;;
42244;SDS011;27912;51.828;5.688;2022-08-21T15:07:40;4.95;;;0.40;;
42244;SDS011;27912;51.828;5.688;2022-08-21T15:10:06;2.35;;;0.30;;
42244;SDS011;27912;51.828;5.688;2022-08-21T15:12:32;1.83;;;0.30;;
42244;SDS011;27912;51.828;5.688;2022-08-21T15:14:58;5.05;;;0.60;;
42244;SDS011;27912;51.828;5.688;2022-08-21T15:17:23;2.38;;;0.40;;
42244;SDS011;27912;51.828;5.688;2022-08-21T15:19:49;2.30;;;0.30;;
42244;SDS011;27912;51.828;5.688;2022-08-21T15:22:15;4.43;;;0.47;;
42244;SDS011;27912;51.828;5.688;2022-08-21T15:24:41;3.83;;;0.40;;
42244;SDS011;27912;51.828;5.688;2022-08-21T15:27:07;4.00;;;0.30;;
42244;SDS011;27912;51.828;5.688;2022-08-21T15:29:34;2.55;;;0.35;;
42244;SDS011;27912;51.828;5.688;2022-08-21T15:34:47;3.22;;;0.50;;
42244;SDS011;27912;51.828;5.688;2022-08-21T15:37:13;5.57;;;0.40;;
42244;SDS011;27912;51.828;5.688;2022-08-21T15:39:39;2.25;;;0.40;;
42244;SDS011;27912;51.828;5.688;2022-08-21T15:42:05;2.22;;;0.30;;
42244;SDS011;27912;51.828;5.688;2022-08-21T15:44:30;3.22;;;0.45;;
42244;SDS011;27912;51.828;5.688;2022-08-21T15:46:56;4.35;;;0.68;;
42244;SDS011;27912;51.828;5.688;2022-08-21T15:49:23;3.30;;;0.50;;
42244;SDS011;27912;51.828;5.688;2022-08-21T15:51:49;3.38;;;0.60;;
42244;SDS011;27912;51.828;5.688;2022-08-21T15:54:14;3.00;;;0.40;;
42244;SDS011;27912;51.828;5.688;2022-08-21T15:56:40;3.35;;;0.47;;
42244;SDS011;27912;51.828;5.688;2022-08-21T15:59:15;4.03;;;0.40;;
42244;SDS011;27912;51.828;5.688;2022-08-21T16:01:47;2.85;;;0.32;;
42244;SDS011;27912;51.828;5.688;2022-08-21T16:04:21;2.42;;;0.40;;